createdAt,value
2019-05-10T00:00:53.857Z,11.88
2019-05-10T00:03:43.633Z,11.81
2019-05-10T00:06:33.970Z,11.83
2019-05-10T00:09:05.580Z,11.71
2019-05-10T00:11:49.394Z,11.71
2019-05-10T00:14:28.991Z,11.82
2019-05-10T00:17:02.531Z,11.81
2019-05-10T00:19:34.360Z,11.77
2019-05-10T00:22:05.978Z,11.76
2019-05-10T00:24:37.520Z,11.75
2019-05-10T00:27:09.535Z,11.80
2019-05-10T00:29:41.482Z,11.73
2019-05-10T00:32:13.414Z,11.77
2019-05-10T00:34:45.080Z,11.77
2019-05-10T00:37:16.873Z,11.74
2019-05-10T00:39:48.809Z,11.74
2019-05-10T00:42:20.953Z,11.78
2019-05-10T00:44:52.868Z,11.81
2019-05-10T00:47:25.948Z,11.80
2019-05-10T00:49:57.702Z,11.78
2019-05-10T00:52:29.753Z,11.74
2019-05-10T00:55:16.666Z,11.70
2019-05-10T00:57:34.980Z,11.69
2019-05-10T01:00:08.574Z,11.75
2019-05-10T01:02:40.441Z,11.76
2019-05-10T01:05:14.147Z,11.76
2019-05-10T01:07:45.792Z,11.61
2019-05-10T01:10:17.984Z,11.69
2019-05-10T01:12:49.650Z,11.67
2019-05-10T01:15:21.823Z,11.70
2019-05-10T01:17:53.543Z,11.65
2019-05-10T01:20:26.129Z,11.69
2019-05-10T01:22:57.774Z,11.70
2019-05-10T01:25:35.373Z,11.74
2019-05-10T01:28:02.890Z,11.76
2019-05-10T01:30:34.504Z,11.71
2019-05-10T01:33:06.357Z,11.73
2019-05-10T01:35:38.170Z,11.79
2019-05-10T01:38:09.767Z,11.75
2019-05-10T01:40:41.447Z,11.76
2019-05-10T01:43:13.084Z,11.78
2019-05-10T01:45:45.054Z,11.73
2019-05-10T01:48:16.593Z,11.71
2019-05-10T01:50:48.195Z,11.74
2019-05-10T01:53:19.782Z,11.77
2019-05-10T01:55:52.962Z,11.77
2019-05-10T01:58:25.040Z,11.71
2019-05-10T02:00:57.004Z,11.77
2019-05-10T02:03:28.694Z,11.72
2019-05-10T02:06:00.308Z,11.71
2019-05-10T02:08:32.593Z,11.70
2019-05-10T02:11:04.750Z,11.67
2019-05-10T02:13:36.325Z,11.56
2019-05-10T02:16:08.467Z,11.54
2019-05-10T02:18:40.530Z,11.55
2019-05-10T02:21:12.698Z,11.58
2019-05-10T02:23:44.398Z,11.53
2019-05-10T02:26:16.210Z,11.61
2019-05-10T02:28:49.627Z,11.59
2019-05-10T02:31:22.173Z,11.65
2019-05-10T02:33:53.942Z,11.56
2019-05-10T02:36:25.587Z,11.51
2019-05-10T02:38:57.289Z,11.64
2019-05-10T02:41:29.568Z,11.55
2019-05-10T02:44:01.618Z,11.56
2019-05-10T02:46:33.582Z,11.61
2019-05-10T02:49:07.646Z,11.60
2019-05-10T02:51:39.316Z,11.56
2019-05-10T02:54:11.203Z,11.59
2019-05-10T02:56:43.859Z,11.59
2019-05-10T02:59:16.419Z,11.62
2019-05-10T03:01:48.112Z,11.63
2019-05-10T03:04:23.261Z,11.59
2019-05-10T03:06:57.975Z,11.57
2019-05-10T03:09:34.020Z,11.58
2019-05-10T03:12:26.027Z,11.56
2019-05-10T03:14:58.935Z,11.53
2019-05-10T03:17:32.447Z,11.62
2019-05-10T03:20:04.279Z,11.65
2019-05-10T03:22:39.209Z,11.65
2019-05-10T03:25:11.062Z,11.64
2019-05-10T03:27:42.795Z,11.73
2019-05-10T03:30:15.013Z,11.72
2019-05-10T03:32:46.550Z,11.70
2019-05-10T03:35:18.552Z,11.74
2019-05-10T03:37:50.917Z,11.77
2019-05-10T03:40:22.536Z,11.75
2019-05-10T03:42:54.224Z,11.75
2019-05-10T03:45:26.284Z,11.73
2019-05-10T03:47:58.282Z,11.74
2019-05-10T03:50:30.315Z,11.75
2019-05-10T03:53:02.394Z,11.75
2019-05-10T03:55:34.515Z,11.71
2019-05-10T03:58:06.415Z,11.80
2019-05-10T04:00:38.358Z,11.81
2019-05-10T04:03:10.366Z,11.88
2019-05-10T04:05:42.177Z,11.83
2019-05-10T04:08:13.744Z,11.93
2019-05-10T04:10:45.798Z,11.86
2019-05-10T04:13:17.781Z,11.88
2019-05-10T04:15:49.823Z,11.97
2019-05-10T04:18:21.555Z,11.93
2019-05-10T04:20:53.129Z,11.92
2019-05-10T04:23:25.208Z,11.91
2019-05-10T04:25:59.520Z,11.92
2019-05-10T04:28:31.155Z,11.84
2019-05-10T04:31:03.110Z,11.87
2019-05-10T04:33:35.247Z,11.91
2019-05-10T04:36:12.045Z,12.12
2019-05-10T04:38:40.181Z,12.15
2019-05-10T04:41:11.798Z,12.03
2019-05-10T04:43:43.865Z,12.09
2019-05-10T04:46:15.704Z,12.13
2019-05-10T04:48:47.969Z,12.09
2019-05-10T04:51:19.623Z,12.20
2019-05-10T04:53:51.527Z,12.22
2019-05-10T04:56:23.155Z,12.21
2019-05-10T04:58:55.001Z,12.21
2019-05-10T05:01:26.976Z,12.30
2019-05-10T05:03:58.946Z,12.26
2019-05-10T05:06:30.886Z,12.25
2019-05-10T05:09:02.786Z,12.30
2019-05-10T05:11:34.612Z,12.24
2019-05-10T05:14:09.450Z,12.29
2019-05-10T05:16:42.531Z,12.36
2019-05-10T05:19:14.419Z,12.38
2019-05-10T05:21:46.378Z,12.48
2019-05-10T05:24:23.013Z,12.50
2019-05-10T05:26:51.914Z,12.47
2019-05-10T05:29:24.158Z,12.48
2019-05-10T05:32:01.276Z,12.54
2019-05-10T05:34:29.251Z,12.63
2019-05-10T05:37:00.996Z,12.77
2019-05-10T05:39:33.096Z,12.85
2019-05-10T05:42:04.949Z,12.90
2019-05-10T05:44:36.797Z,13.01
2019-05-10T05:47:08.735Z,12.92
2019-05-10T05:49:40.901Z,12.99
2019-05-10T05:52:12.793Z,13.09
2019-05-10T05:54:44.413Z,13.10
2019-05-10T05:57:16.451Z,13.15
2019-05-10T05:59:49.172Z,13.22
2019-05-10T06:02:21.041Z,13.21
2019-05-10T06:04:53.590Z,13.25
2019-05-10T06:07:25.304Z,13.28
2019-05-10T06:09:57.163Z,13.38
2019-05-10T06:12:28.559Z,13.52
2019-05-10T06:15:00.112Z,13.58
2019-05-10T06:17:31.896Z,13.64
2019-05-10T06:20:06.102Z,13.56
2019-05-10T06:22:38.087Z,13.64
2019-05-10T06:25:11.266Z,13.64
2019-05-10T06:27:43.213Z,13.63
2019-05-10T06:30:16.930Z,13.63
2019-05-10T06:32:53.297Z,13.72
2019-05-10T06:35:21.542Z,13.80
2019-05-10T06:37:53.097Z,13.81
2019-05-10T06:40:35.836Z,13.92
2019-05-10T06:42:59.631Z,14.01
2019-05-10T06:45:31.462Z,14.09
2019-05-10T06:48:03.340Z,14.13
2019-05-10T06:50:34.961Z,14.18
2019-05-10T06:53:10.514Z,14.13
2019-05-10T06:55:40.003Z,14.39
2019-05-10T06:58:11.857Z,14.57
2019-05-10T07:00:45.566Z,14.76
2019-05-10T07:03:16.711Z,14.69
2019-05-10T07:05:48.155Z,14.78
2019-05-10T07:08:20.645Z,14.78
2019-05-10T07:10:52.245Z,14.88
2019-05-10T07:13:23.767Z,14.95
2019-05-10T07:15:55.496Z,15.08
2019-05-10T07:18:27.454Z,15.12
2019-05-10T07:21:00.898Z,15.20
2019-05-10T07:23:32.505Z,15.19
2019-05-10T07:26:04.199Z,15.22
2019-05-10T07:28:35.748Z,15.24
2019-05-10T07:31:07.473Z,15.20
2019-05-10T07:33:40.230Z,15.28
2019-05-10T07:36:15.185Z,15.34
2019-05-10T07:38:45.694Z,15.26
2019-05-10T07:41:19.731Z,15.35
2019-05-10T07:43:50.916Z,15.51
2019-05-10T07:46:22.559Z,15.65
2019-05-10T07:48:54.118Z,15.64
2019-05-10T07:51:28.830Z,15.76
2019-05-10T07:54:04.673Z,15.88
2019-05-10T07:56:33.304Z,15.83
2019-05-10T07:59:05.423Z,15.63
2019-05-10T08:01:37.477Z,15.72
2019-05-10T08:04:12.628Z,15.86
2019-05-10T08:06:47.436Z,15.83
2019-05-10T08:09:16.257Z,15.76
2019-05-10T08:11:48.598Z,15.73
2019-05-10T08:14:20.555Z,15.86
2019-05-10T08:16:58.556Z,16.14
2019-05-10T08:19:25.617Z,16.37
2019-05-10T08:22:01.754Z,16.74
2019-05-10T08:24:35.140Z,16.92
2019-05-10T08:27:11.332Z,17.02
2019-05-10T08:29:36.857Z,17.29
2019-05-10T08:32:08.801Z,17.53
2019-05-10T08:34:51.733Z,17.53
2019-05-10T08:37:19.455Z,17.39
2019-05-10T08:39:50.298Z,17.08
2019-05-10T08:42:37.812Z,16.87
2019-05-10T08:45:04.132Z,16.83
2019-05-10T08:47:28.285Z,16.58
2019-05-10T08:50:17.930Z,16.33
2019-05-10T08:52:34.353Z,16.30
2019-05-10T08:55:07.985Z,16.05
2019-05-10T08:57:44.288Z,15.97
2019-05-10T09:00:13.386Z,15.97
2019-05-10T09:02:44.902Z,16.17
2019-05-10T09:05:22.649Z,16.22
2019-05-10T09:07:52.081Z,16.16
2019-05-10T09:10:23.939Z,16.14
2019-05-10T09:12:58.139Z,16.17
2019-05-10T09:15:28.996Z,16.16
2019-05-10T09:18:04.155Z,16.22
2019-05-10T09:20:34.513Z,16.21
2019-05-10T09:23:08.619Z,16.09
2019-05-10T09:25:39.387Z,16.02
2019-05-10T09:28:16.534Z,15.98
2019-05-10T09:30:56.573Z,16.00
2019-05-10T09:33:18.111Z,16.09
2019-05-10T09:35:54.697Z,16.03
2019-05-10T09:38:23.378Z,16.07
2019-05-10T09:40:56.257Z,16.03
2019-05-10T09:43:28.590Z,15.95
2019-05-10T09:46:02.527Z,15.91
2019-05-10T09:48:33.417Z,15.89
2019-05-10T09:51:05.249Z,15.83
2019-05-10T09:53:38.353Z,15.77
2019-05-10T09:56:10.110Z,15.73
2019-05-10T09:58:41.934Z,15.72
2019-05-10T10:01:19.085Z,15.53
2019-05-10T10:03:47.793Z,15.46
2019-05-10T10:06:20.070Z,15.49
2019-05-10T10:08:53.255Z,15.59
2019-05-10T10:11:27.640Z,15.59
2019-05-10T10:14:01.887Z,15.73
2019-05-10T10:16:32.133Z,15.71
2019-05-10T10:19:04.092Z,15.73
2019-05-10T10:21:38.984Z,15.70
2019-05-10T10:24:15.803Z,15.76
2019-05-10T10:26:42.530Z,15.74
2019-05-10T10:29:14.080Z,15.77
2019-05-10T10:31:54.656Z,15.81
2019-05-10T10:34:19.357Z,15.82
2019-05-10T10:36:51.011Z,15.77
2019-05-10T10:39:23.168Z,15.83
2019-05-10T10:41:57.156Z,15.94
2019-05-10T10:44:28.919Z,16.00
2019-05-10T10:47:00.682Z,15.93
2019-05-10T10:49:51.170Z,15.92
2019-05-10T10:52:23.031Z,16.04
2019-05-10T10:54:54.824Z,16.18
2019-05-10T10:57:39.246Z,16.43
2019-05-10T11:00:38.862Z,16.65
2019-05-10T11:03:09.817Z,16.94
2019-05-10T11:05:41.372Z,17.10
2019-05-10T11:08:14.298Z,17.32
2019-05-10T11:10:46.209Z,17.41
2019-05-10T11:13:23.716Z,17.28
2019-05-10T11:15:51.868Z,17.26
2019-05-10T11:18:23.437Z,17.19
2019-05-10T11:20:55.063Z,17.09
2019-05-10T11:23:34.101Z,16.94
2019-05-10T11:26:01.321Z,16.88
2019-05-10T11:28:38.620Z,16.82
2019-05-10T11:31:06.146Z,16.76
2019-05-10T11:33:37.747Z,16.66
2019-05-10T11:36:11.420Z,16.62
2019-05-10T11:38:47.037Z,16.68
2019-05-10T11:41:22.136Z,16.69
2019-05-10T11:43:49.692Z,16.83
2019-05-10T11:46:21.362Z,16.93
2019-05-10T11:48:53.225Z,17.08
2019-05-10T11:51:25.173Z,17.27
2019-05-10T11:53:59.648Z,17.39
2019-05-10T11:56:32.368Z,17.42
2019-05-10T11:59:05.430Z,17.31
2019-05-10T12:01:41.835Z,17.51
2019-05-10T12:04:24.035Z,17.97
2019-05-10T12:06:50.201Z,17.85
2019-05-10T12:09:24.522Z,17.73
2019-05-10T12:11:57.051Z,17.61
2019-05-10T12:14:28.849Z,17.38
2019-05-10T12:17:05.619Z,17.34
2019-05-10T12:19:44.478Z,17.28
2019-05-10T12:22:07.139Z,17.07
2019-05-10T12:24:57.109Z,17.05
2019-05-10T12:27:24.506Z,16.89
2019-05-10T12:29:46.579Z,16.83
2019-05-10T12:32:21.236Z,16.75
2019-05-10T12:34:56.518Z,16.89
2019-05-10T12:37:25.344Z,16.95
2019-05-10T12:40:06.182Z,16.92
2019-05-10T12:42:31.789Z,16.90
2019-05-10T12:45:04.421Z,16.91
2019-05-10T12:47:36.320Z,16.89
2019-05-10T12:50:08.914Z,16.79
2019-05-10T12:52:43.286Z,16.65
2019-05-10T12:55:13.761Z,16.48
2019-05-10T12:57:45.789Z,16.44
2019-05-10T13:00:17.734Z,16.46
2019-05-10T13:02:52.827Z,16.38
2019-05-10T13:05:30.643Z,16.46
2019-05-10T13:07:56.697Z,16.65
2019-05-10T13:10:28.734Z,16.75
2019-05-10T13:13:00.353Z,16.73
2019-05-10T13:15:33.499Z,16.78
2019-05-10T13:18:05.176Z,16.86
2019-05-10T13:20:38.661Z,16.95
2019-05-10T13:23:15.987Z,16.98
2019-05-10T13:25:44.528Z,16.98
2019-05-10T13:28:16.433Z,16.83
2019-05-10T13:30:47.935Z,16.80
2019-05-10T13:33:28.457Z,16.88
2019-05-10T13:35:56.530Z,16.93
2019-05-10T13:38:26.830Z,16.91
2019-05-10T13:40:58.975Z,16.97
2019-05-10T13:43:30.857Z,16.94
2019-05-10T13:46:02.490Z,17.04
2019-05-10T13:48:34.338Z,17.01
2019-05-10T13:51:06.195Z,17.04
2019-05-10T13:53:37.771Z,16.99
2019-05-10T13:56:09.612Z,17.01
2019-05-10T13:58:41.777Z,17.13
2019-05-10T14:01:14.864Z,17.10
2019-05-10T14:03:53.965Z,16.96
2019-05-10T14:06:20.638Z,16.90
2019-05-10T14:08:52.217Z,16.80
2019-05-10T14:11:25.632Z,16.73
2019-05-10T14:13:57.259Z,16.76
2019-05-10T14:16:28.756Z,16.61
2019-05-10T14:19:00.237Z,16.60
2019-05-10T14:21:31.767Z,16.52
2019-05-10T14:24:03.098Z,16.48
2019-05-10T14:26:34.535Z,16.41
2019-05-10T14:29:05.959Z,16.44
2019-05-10T14:31:37.304Z,16.50
2019-05-10T14:34:16.084Z,16.64
2019-05-10T14:36:43.508Z,16.58
2019-05-10T14:39:15.004Z,16.53
2019-05-10T14:41:50.817Z,16.59
2019-05-10T14:44:20.165Z,16.67
2019-05-10T14:46:51.838Z,16.65
2019-05-10T14:49:23.681Z,16.59
2019-05-10T14:51:59.708Z,16.58
2019-05-10T14:54:42.530Z,16.48
2019-05-10T14:57:01.948Z,16.52
2019-05-10T14:59:34.071Z,16.51
2019-05-10T15:02:05.953Z,16.46
2019-05-10T15:04:46.918Z,16.54
2019-05-10T15:07:14.466Z,16.48
2019-05-10T15:09:44.627Z,16.50
2019-05-10T15:12:22.275Z,16.57
2019-05-10T15:14:49.865Z,16.63
2019-05-10T15:17:21.281Z,16.53
2019-05-10T15:19:57.607Z,16.59
2019-05-10T15:22:26.370Z,16.58
2019-05-10T15:24:58.013Z,16.52
2019-05-10T15:27:29.495Z,16.55
2019-05-10T15:30:05.368Z,16.60
2019-05-10T15:32:35.127Z,16.66
2019-05-10T15:35:08.662Z,16.55
2019-05-10T15:37:45.763Z,16.47
2019-05-10T15:40:14.825Z,16.57
2019-05-10T15:42:46.423Z,16.46
2019-05-10T15:45:19.459Z,16.42
2019-05-10T15:47:52.327Z,16.33
2019-05-10T15:50:24.515Z,16.33
2019-05-10T15:52:56.475Z,16.32
2019-05-10T15:55:28.992Z,16.23
2019-05-10T15:58:00.697Z,16.30
2019-05-10T16:00:39.202Z,16.23
2019-05-10T16:03:06.157Z,16.29
2019-05-10T16:05:43.396Z,16.23
2019-05-10T16:08:13.663Z,16.14
2019-05-10T16:10:44.592Z,16.14
2019-05-10T16:13:23.245Z,16.13
2019-05-10T16:15:51.747Z,16.10
2019-05-10T16:18:23.218Z,16.13
2019-05-10T16:20:54.962Z,16.11
2019-05-10T16:23:26.471Z,16.05
2019-05-10T16:25:58.216Z,16.04
2019-05-10T16:28:30.170Z,15.99
2019-05-10T16:31:01.964Z,16.01
2019-05-10T16:33:33.821Z,16.00
2019-05-10T16:36:08.313Z,15.97
2019-05-10T16:38:39.248Z,15.99
2019-05-10T16:41:10.933Z,15.97
2019-05-10T16:43:43.691Z,15.90
2019-05-10T16:46:15.575Z,15.91
2019-05-10T16:48:47.094Z,15.84
2019-05-10T16:51:18.888Z,15.79
2019-05-10T16:53:50.569Z,15.76
2019-05-10T16:56:22.494Z,15.68
2019-05-10T16:58:55.122Z,15.70
2019-05-10T17:01:27.776Z,15.61
2019-05-10T17:04:01.520Z,15.58
2019-05-10T17:06:35.550Z,15.55
2019-05-10T17:09:09.479Z,15.46
2019-05-10T17:11:41.487Z,15.38
2019-05-10T17:14:17.778Z,15.35
2019-05-10T17:16:49.551Z,15.29
2019-05-10T17:19:20.783Z,15.25
2019-05-10T17:21:52.420Z,15.17
2019-05-10T17:24:25.417Z,15.07
2019-05-10T17:26:57.184Z,15.06
2019-05-10T17:29:28.979Z,14.98
2019-05-10T17:32:00.936Z,14.93
2019-05-10T17:34:32.410Z,14.88
2019-05-10T17:37:04.736Z,14.85
2019-05-10T17:39:36.520Z,14.84
2019-05-10T17:42:08.356Z,14.79
2019-05-10T17:44:43.514Z,14.78
2019-05-10T17:47:13.603Z,14.73
2019-05-10T17:49:45.478Z,14.70
2019-05-10T17:52:17.502Z,14.63
2019-05-10T17:54:50.386Z,14.61
2019-05-10T17:57:24.299Z,14.59
2019-05-10T17:59:55.832Z,14.49
2019-05-10T18:02:30.366Z,14.49
2019-05-10T18:05:06.754Z,14.45
2019-05-10T18:07:35.351Z,14.44
2019-05-10T18:10:07.656Z,14.45
2019-05-10T18:12:40.620Z,14.44
2019-05-10T18:15:12.727Z,14.42
2019-05-10T18:17:44.308Z,14.38
2019-05-10T18:20:16.172Z,14.36
2019-05-10T18:22:48.494Z,14.35
2019-05-10T18:25:22.398Z,14.32
2019-05-10T18:27:53.756Z,14.31
2019-05-10T18:30:25.696Z,14.28
2019-05-10T18:32:57.600Z,14.26
2019-05-10T18:35:29.039Z,14.19
2019-05-10T18:38:00.985Z,14.18
2019-05-10T18:40:35.305Z,14.16
2019-05-10T18:43:07.212Z,14.17
2019-05-10T18:45:40.523Z,14.18
2019-05-10T18:48:12.088Z,14.14
2019-05-10T18:50:45.229Z,14.18
2019-05-10T18:53:16.926Z,14.13
2019-05-10T18:55:48.580Z,14.18
2019-05-10T18:58:23.321Z,14.10
2019-05-10T19:00:56.115Z,14.09
2019-05-10T19:03:33.431Z,14.08
2019-05-10T19:06:04.176Z,14.00
2019-05-10T19:08:35.231Z,13.99
2019-05-10T19:11:07.206Z,13.92
2019-05-10T19:13:46.759Z,13.89
2019-05-10T19:16:12.651Z,13.82
2019-05-10T19:18:44.424Z,13.82
2019-05-10T19:21:16.267Z,13.80
2019-05-10T19:23:52.319Z,13.80
2019-05-10T19:26:23.845Z,13.77
2019-05-10T19:28:59.042Z,13.74
2019-05-10T19:31:37.255Z,13.68
2019-05-10T19:34:02.142Z,13.66
2019-05-10T19:36:33.914Z,13.61
2019-05-10T19:39:07.268Z,13.54
2019-05-10T19:41:38.650Z,13.57
2019-05-10T19:44:10.273Z,13.54
2019-05-10T19:46:42.948Z,13.50
2019-05-10T19:49:15.600Z,13.47
2019-05-10T19:51:50.280Z,13.41
2019-05-10T19:54:21.397Z,13.39
2019-05-10T19:56:55.492Z,13.40
2019-05-10T19:59:27.288Z,13.31
2019-05-10T20:01:58.830Z,13.33
2019-05-10T20:04:30.579Z,13.34
2019-05-10T20:07:02.240Z,13.35
2019-05-10T20:09:34.090Z,13.30
2019-05-10T20:12:05.560Z,13.27
2019-05-10T20:14:37.239Z,13.29
2019-05-10T20:17:09.091Z,13.27
2019-05-10T20:19:40.812Z,13.34
2019-05-10T20:22:12.738Z,13.24
2019-05-10T20:24:44.495Z,13.26
2019-05-10T20:27:16.177Z,13.25
2019-05-10T20:29:48.456Z,13.33
2019-05-10T20:32:20.319Z,13.23
2019-05-10T20:34:51.878Z,13.26
2019-05-10T20:37:23.732Z,13.22
2019-05-10T20:39:55.589Z,13.23
2019-05-10T20:42:27.323Z,13.23
2019-05-10T20:45:07.634Z,13.24
2019-05-10T20:47:32.805Z,13.21
2019-05-10T20:50:05.179Z,13.26
2019-05-10T20:52:37.061Z,13.28
2019-05-10T20:55:08.851Z,13.26
2019-05-10T20:57:41.271Z,13.30
2019-05-10T21:00:13.237Z,13.24
2019-05-10T21:02:44.899Z,13.17
2019-05-10T21:05:16.905Z,13.14
2019-05-10T21:07:48.623Z,13.14
2019-05-10T21:10:20.361Z,13.13
2019-05-10T21:12:52.232Z,13.17
2019-05-10T21:15:23.718Z,13.16
2019-05-10T21:17:55.354Z,13.21
2019-05-10T21:20:27.112Z,13.23
2019-05-10T21:22:58.745Z,13.10
2019-05-10T21:25:30.472Z,12.99
2019-05-10T21:28:01.852Z,13.00
2019-05-10T21:30:33.518Z,12.92
2019-05-10T21:33:05.529Z,12.91
2019-05-10T21:35:37.116Z,12.82
2019-05-10T21:38:08.783Z,12.77
2019-05-10T21:40:40.449Z,12.67
2019-05-10T21:43:12.098Z,12.70
2019-05-10T21:45:43.763Z,12.69
2019-05-10T21:48:15.292Z,12.65
2019-05-10T21:50:47.228Z,12.67
2019-05-10T21:53:18.909Z,12.74
2019-05-10T21:55:50.601Z,12.77
2019-05-10T21:58:22.322Z,12.77
2019-05-10T22:00:54.299Z,12.79
2019-05-10T22:03:27.614Z,12.83
2019-05-10T22:05:59.463Z,12.81
2019-05-10T22:08:30.901Z,12.73
2019-05-10T22:11:02.714Z,12.80
2019-05-10T22:13:34.301Z,12.80
2019-05-10T22:16:05.864Z,12.76
2019-05-10T22:18:38.430Z,12.76
2019-05-10T22:21:09.823Z,12.68
2019-05-10T22:23:41.845Z,12.72
2019-05-10T22:26:13.623Z,12.69
2019-05-10T22:28:45.357Z,12.70
2019-05-10T22:31:17.060Z,12.69
2019-05-10T22:33:48.771Z,12.74
2019-05-10T22:36:20.347Z,12.78
2019-05-10T22:39:05.834Z,12.75
2019-05-10T22:41:24.895Z,12.67
2019-05-10T22:43:56.724Z,12.68
2019-05-10T22:46:28.646Z,12.62
2019-05-10T22:49:01.193Z,12.57
2019-05-10T22:51:33.053Z,12.62
2019-05-10T22:54:04.957Z,12.54
2019-05-10T22:56:36.896Z,12.60
2019-05-10T22:59:08.537Z,12.60
2019-05-10T23:01:40.375Z,12.57
2019-05-10T23:04:13.442Z,12.52
2019-05-10T23:06:45.216Z,12.49
2019-05-10T23:09:24.667Z,12.49
2019-05-10T23:11:50.575Z,12.46
2019-05-10T23:14:22.326Z,12.51
2019-05-10T23:16:54.139Z,12.51
2019-05-10T23:19:25.684Z,12.53
2019-05-10T23:21:57.382Z,12.55
2019-05-10T23:24:39.272Z,12.51
2019-05-10T23:27:11.858Z,12.55
2019-05-10T23:29:43.397Z,12.47
2019-05-10T23:32:15.279Z,12.49
2019-05-10T23:34:46.929Z,12.47
2019-05-10T23:37:18.777Z,12.50
2019-05-10T23:39:50.635Z,12.47
2019-05-10T23:42:22.151Z,12.41
2019-05-10T23:44:53.957Z,12.40
2019-05-10T23:47:25.719Z,12.37
2019-05-10T23:49:57.547Z,12.35
2019-05-10T23:52:29.433Z,12.38
2019-05-10T23:55:02.612Z,12.36
2019-05-10T23:57:34.614Z,12.37
